Airfield :
LOGIN :

Register | Disclaimer

   EN    FR    IT 

 










Legend :    VFR   Marginal VFR   IFR   Intensive IFR   Very Intensive IFR
Visi :
Ceiling :
>= 8 km
>= 3000ft
5 to 8 km
1000 to 3000 ft
1500m to 5 km
500 to 1000 ft
800 to 1500m
200 to 500 ft
< 800m
< 200 ft
Symbols :   Thunderstorms  Fog  Heavy snow  Heavy precipitations  Wind > 20 kt
SIGMETs :     Misc.  Thunderstorms  Icing  Turbulence  Mountain Waves  Volcanic Ashes







- Airport Elevation : 821 ft
- IATA code : LYS
- Download approach charts


LFLL - Lyon St Exupéry / Satolas

CURRENT METAR :
  • 210830Z 36005KT 340V040 2500 BR OVC004 10/09 Q1025 NOSIG

EXPIRED METARs :
  • 210800Z 02004KT 2500 BR OVC005 10/09 Q1026 NOSIG
  • 210730Z 03002KT 2500 BR OVC005 10/09 Q1025 NOSIG
  • 210700Z VRB03KT 2500 BR OVC006 10/09 Q1025 NOSIG
  • 210630Z 02004KT 330V040 2200 BR OVC006 10/09 Q1025 TEMPO 0500 BCFG BKN004
  • 210600Z 01003KT 340V060 3000 BR OVC006 10/10 Q1025 TEMPO 0500 BCFG BKN004
  • 210530Z 00000KT 4000 BR OVC006 10/09 Q1025 TEMPO 0500 BCFG BKN004

TAF TAF LFLL
Valid from the 21 at 06:00 until the 22 at 12:00 UTC


210500Z 2106/2212 VRB02KT 3000 BR BKN006
PROB30
TEMPO 2106/2109 0400 FG VV///
BECMG 2109/2112 7000 NSW FEW009
BECMG 2112/2114 36010KT CAVOK
PROB40
TEMPO 2202/2208 VRB02KT 3000 BR
No reported NOTAMs for that airfield.



MET'MAP, your aeronautical weather chart ! - Copyright ORBIFLY December 2007 - Disclaimer

ORBIFLY MET'MAP TEAM :

Programming & Development : Alexandra Zaïnal
Concept & Development : Baudouin d'Aumeries
Co-Development & Prog : Marc-Olivier Méhu
Technical & hardware support : Manuel Goepfert

Contact : metmap@orbifly.com




SOURCES & CREDITS :

   NOAA